createdAt,value
2023-01-30T00:01:16.501Z,100748.59
2023-01-30T00:03:45.861Z,100739.13
2023-01-30T00:06:13.773Z,100734.06
2023-01-30T00:08:41.420Z,100721.06
2023-01-30T00:11:10.962Z,100715.91
2023-01-30T00:13:39.973Z,100701.13
2023-01-30T00:16:09.584Z,100700.38
2023-01-30T00:18:37.781Z,100687.31
2023-01-30T00:21:09.270Z,100668.19
2023-01-30T00:23:37.790Z,100666.53
2023-01-30T00:26:06.296Z,100659.50
2023-01-30T00:28:34.834Z,100644.69
2023-01-30T00:31:02.596Z,100639.41
2023-01-30T00:33:30.480Z,100645.50
2023-01-30T00:35:58.462Z,100637.59
2023-01-30T00:38:27.476Z,100655.88
2023-01-30T00:40:55.009Z,100650.66
2023-01-30T00:43:40.303Z,100642.88
2023-01-30T00:46:32.524Z,100648.19
2023-01-30T00:49:00.947Z,100634.25
2023-01-30T00:51:29.313Z,100623.88
2023-01-30T00:53:58.183Z,100590.09
2023-01-30T00:56:25.833Z,100563.19
2023-01-30T00:58:53.386Z,100558.91
2023-01-30T01:01:20.930Z,100569.47
2023-01-30T01:03:50.309Z,100568.81
2023-01-30T01:06:18.279Z,100568.19
2023-01-30T01:08:46.684Z,100563.19
2023-01-30T01:11:24.229Z,100570.41
2023-01-30T01:13:56.270Z,100584.47
2023-01-30T01:16:24.958Z,100597.66
2023-01-30T01:18:53.064Z,100602.09
2023-01-30T01:21:21.406Z,100582.13
2023-01-30T01:23:51.408Z,100578.78
2023-01-30T01:26:21.051Z,100578.03
2023-01-30T01:28:48.757Z,100582.56
2023-01-30T01:31:17.942Z,100568.63
2023-01-30T01:33:45.551Z,100554.03
2023-01-30T01:36:20.014Z,100544.56
2023-01-30T01:38:57.428Z,100533.31
2023-01-30T01:41:25.523Z,100514.16
2023-01-30T01:44:05.795Z,100510.56
2023-01-30T01:46:39.653Z,100503.56
2023-01-30T01:49:13.330Z,100498.22
2023-01-30T01:51:46.226Z,100491.22
2023-01-30T01:54:17.972Z,100495.56
2023-01-30T01:56:49.282Z,100489.50
2023-01-30T01:59:25.409Z,100486.13
2023-01-30T02:01:56.961Z,100473.22
2023-01-30T02:04:44.863Z,100475.06
2023-01-30T02:07:12.534Z,100458.59
2023-01-30T02:09:40.143Z,100449.13
2023-01-30T02:12:11.143Z,100444.78
2023-01-30T02:14:39.163Z,100436.94
2023-01-30T02:17:06.812Z,100436.94
2023-01-30T02:19:46.140Z,100422.97
2023-01-30T02:22:37.285Z,100423.84
2023-01-30T02:25:24.254Z,100422.97
2023-01-30T02:28:18.360Z,100404.66
2023-01-30T02:31:13.841Z,100387.16
2023-01-30T02:33:53.248Z,100374.97
2023-01-30T02:36:36.507Z,100373.25
2023-01-30T02:39:11.243Z,100371.56
2023-01-30T02:41:49.765Z,100384.66
2023-01-30T02:44:22.953Z,100360.28
2023-01-30T02:46:56.436Z,100369.00
2023-01-30T02:49:29.995Z,100369.94
2023-01-30T02:52:00.155Z,100360.34
2023-01-30T02:54:27.892Z,100343.88
2023-01-30T02:56:59.189Z,100336.94
2023-01-30T02:59:32.125Z,100338.78
2023-01-30T03:02:28.019Z,100338.00
2023-01-30T03:05:32.665Z,100339.78
2023-01-30T03:08:13.783Z,100318.03
2023-01-30T03:10:49.408Z,100325.16
2023-01-30T03:13:25.923Z,100323.50
2023-01-30T03:15:58.636Z,100306.16
2023-01-30T03:18:27.583Z,100303.69
2023-01-30T03:20:55.741Z,100316.09
2023-01-30T03:23:23.644Z,100314.47
2023-01-30T03:25:52.199Z,100294.44
2023-01-30T03:28:21.874Z,100296.28
2023-01-30T03:30:50.676Z,100290.31
2023-01-30T03:33:18.438Z,100286.03
2023-01-30T03:35:50.783Z,100270.41
2023-01-30T03:38:19.148Z,100258.25
2023-01-30T03:40:47.698Z,100253.88
2023-01-30T03:43:15.980Z,100259.19
2023-01-30T03:45:43.537Z,100260.13
2023-01-30T03:48:11.029Z,100250.50
2023-01-30T03:50:38.687Z,100256.66
2023-01-30T03:53:08.165Z,100246.22
2023-01-30T03:55:35.735Z,100247.19
2023-01-30T03:58:03.400Z,100231.50
2023-01-30T04:00:33.661Z,100237.66
2023-01-30T04:03:02.217Z,100234.22
2023-01-30T04:05:29.756Z,100235.16
2023-01-30T04:08:03.257Z,100214.31
2023-01-30T04:10:32.225Z,100205.72
2023-01-30T04:12:59.755Z,100207.59
2023-01-30T04:15:27.359Z,100205.97
2023-01-30T04:18:14.956Z,100190.38
2023-01-30T04:20:49.483Z,100204.44
2023-01-30T04:23:21.675Z,100202.75
2023-01-30T04:25:50.609Z,100191.47
2023-01-30T04:28:20.376Z,100188.91
2023-01-30T04:30:48.524Z,100189.94
2023-01-30T04:33:35.318Z,100174.22
2023-01-30T04:36:06.952Z,100168.13
2023-01-30T04:38:35.922Z,100164.84
2023-01-30T04:41:06.606Z,100162.25
2023-01-30T04:43:36.641Z,100171.22
2023-01-30T04:46:21.515Z,100156.53
2023-01-30T04:48:49.055Z,100160.03
2023-01-30T04:51:16.580Z,100166.19
2023-01-30T04:53:44.163Z,100168.00
2023-01-30T04:56:13.819Z,100168.91
2023-01-30T04:58:41.673Z,100162.81
2023-01-30T05:01:14.856Z,100147.91
2023-01-30T05:03:42.473Z,100147.13
2023-01-30T05:06:10.012Z,100156.78
2023-01-30T05:08:37.586Z,100140.22
2023-01-30T05:11:07.164Z,100137.59
2023-01-30T05:13:36.195Z,100141.97
2023-01-30T05:16:03.834Z,100134.97
2023-01-30T05:18:31.646Z,100129.72
2023-01-30T05:21:05.461Z,100122.66
2023-01-30T05:23:32.973Z,100125.22
2023-01-30T05:26:00.565Z,100116.38
2023-01-30T05:28:28.875Z,100110.22
2023-01-30T05:31:02.194Z,100118.94
2023-01-30T05:33:30.345Z,100118.94
2023-01-30T05:35:58.075Z,100122.50
2023-01-30T05:38:26.953Z,100108.50
2023-01-30T05:41:01.880Z,100092.72
2023-01-30T05:43:29.829Z,100107.53
2023-01-30T05:46:00.765Z,100102.25
2023-01-30T05:48:28.681Z,100081.25
2023-01-30T05:50:57.863Z,100073.38
2023-01-30T05:53:28.631Z,100077.69
2023-01-30T05:55:56.648Z,100062.66
2023-01-30T05:58:24.647Z,100065.28
2023-01-30T06:00:52.468Z,100069.59
2023-01-30T06:03:21.654Z,100065.16
2023-01-30T06:05:49.241Z,100058.97
2023-01-30T06:08:16.741Z,100065.88
2023-01-30T06:10:44.249Z,100053.59
2023-01-30T06:13:11.874Z,100059.63
2023-01-30T06:15:40.061Z,100040.41
2023-01-30T06:18:07.620Z,100038.63
2023-01-30T06:20:36.587Z,100042.06
2023-01-30T06:23:04.105Z,100050.69
2023-01-30T06:25:31.634Z,100047.19
2023-01-30T06:27:59.167Z,100061.16
2023-01-30T06:30:26.735Z,100061.97
2023-01-30T06:32:55.259Z,100054.09
2023-01-30T06:35:22.794Z,100060.22
2023-01-30T06:37:51.652Z,100064.56
2023-01-30T06:40:19.602Z,100061.06
2023-01-30T06:42:47.312Z,100061.06
2023-01-30T06:45:16.704Z,100060.28
2023-01-30T06:47:48.826Z,100065.53
2023-01-30T06:50:18.222Z,100073.47
2023-01-30T06:52:47.455Z,100081.34
2023-01-30T06:55:18.508Z,100078.84
2023-01-30T06:57:46.768Z,100077.22
2023-01-30T07:00:16.717Z,100071.13
2023-01-30T07:02:44.257Z,100058.03
2023-01-30T07:05:12.343Z,100069.44
2023-01-30T07:07:40.428Z,100075.69
2023-01-30T07:10:09.692Z,100066.22
2023-01-30T07:12:38.865Z,100060.16
2023-01-30T07:15:07.614Z,100065.50
2023-01-30T07:17:35.138Z,100061.22
2023-01-30T07:20:02.673Z,100061.25
2023-01-30T07:22:30.171Z,100053.44
2023-01-30T07:24:57.681Z,100059.59
2023-01-30T07:27:25.319Z,100070.16
2023-01-30T07:29:54.175Z,100068.53
2023-01-30T07:32:21.699Z,100072.94
2023-01-30T07:34:49.447Z,100082.56
2023-01-30T07:37:16.977Z,100078.22
2023-01-30T07:39:44.483Z,100079.97
2023-01-30T07:42:12.037Z,100074.75
2023-01-30T07:44:39.545Z,100077.41
2023-01-30T07:47:08.547Z,100080.09
2023-01-30T07:49:36.077Z,100080.06
2023-01-30T07:52:03.583Z,100094.94
2023-01-30T07:54:31.118Z,100092.31
2023-01-30T07:56:58.657Z,100087.09
2023-01-30T07:59:26.164Z,100095.88
2023-01-30T08:01:53.661Z,100096.78
2023-01-30T08:04:22.516Z,100092.47
2023-01-30T08:06:50.280Z,100091.59
2023-01-30T08:09:17.798Z,100099.50
2023-01-30T08:11:45.311Z,100093.44
2023-01-30T08:14:12.811Z,100097.00
2023-01-30T08:16:40.465Z,100096.16
2023-01-30T08:19:08.104Z,100104.03
2023-01-30T08:21:37.037Z,100105.78
2023-01-30T08:24:05.093Z,100097.13
2023-01-30T08:26:32.678Z,100079.63
2023-01-30T08:29:00.275Z,100079.69
2023-01-30T08:31:27.911Z,100088.47
2023-01-30T08:33:55.440Z,100082.34
2023-01-30T08:36:23.114Z,100098.19
2023-01-30T08:38:52.044Z,100090.38
2023-01-30T08:41:19.610Z,100102.72
2023-01-30T08:43:47.153Z,100101.94
2023-01-30T08:46:14.726Z,100103.75
2023-01-30T08:48:50.051Z,100104.72
2023-01-30T08:51:18.162Z,100111.81
2023-01-30T08:53:45.706Z,100097.03
2023-01-30T08:56:14.692Z,100112.94
2023-01-30T08:58:43.780Z,100106.00
2023-01-30T09:01:11.378Z,100106.13
2023-01-30T09:03:39.240Z,100108.84
2023-01-30T09:06:07.011Z,100110.75
2023-01-30T09:08:34.583Z,100093.38
2023-01-30T09:11:03.862Z,100109.28
2023-01-30T09:13:33.289Z,100110.22
2023-01-30T09:16:01.097Z,100108.47
2023-01-30T09:18:28.742Z,100105.00
2023-01-30T09:21:03.924Z,100097.13
2023-01-30T09:23:31.541Z,100112.94
2023-01-30T09:26:00.365Z,100113.03
2023-01-30T09:28:28.037Z,100104.47
2023-01-30T09:30:59.109Z,100109.84
2023-01-30T09:33:26.812Z,100106.38
2023-01-30T09:35:55.006Z,100107.34
2023-01-30T09:38:22.790Z,100098.72
2023-01-30T09:41:05.567Z,100101.47
2023-01-30T09:43:48.627Z,100098.97
2023-01-30T09:46:31.703Z,100103.41
2023-01-30T09:49:08.825Z,100122.75
2023-01-30T09:51:59.493Z,100118.34
2023-01-30T09:54:31.381Z,100117.41
2023-01-30T09:57:20.559Z,100116.50
2023-01-30T09:59:55.744Z,100108.59
2023-01-30T10:02:36.668Z,100120.84
2023-01-30T10:05:05.549Z,100113.78
2023-01-30T10:07:48.689Z,100110.25
2023-01-30T10:10:22.719Z,100112.06
2023-01-30T10:13:02.295Z,100116.63
2023-01-30T10:15:45.134Z,100109.69
2023-01-30T10:18:56.829Z,100101.00
2023-01-30T10:21:32.792Z,100101.16
2023-01-30T10:24:41.732Z,100097.72
2023-01-30T10:27:13.946Z,100095.19
2023-01-30T10:29:45.565Z,100091.72
2023-01-30T10:32:17.867Z,100089.06
2023-01-30T10:34:50.521Z,100091.66
2023-01-30T10:37:27.351Z,100097.75
2023-01-30T10:40:03.584Z,100093.28
2023-01-30T10:42:39.445Z,100100.16
2023-01-30T10:45:13.319Z,100082.56
2023-01-30T10:47:52.046Z,100070.28
2023-01-30T10:50:27.931Z,100086.13
2023-01-30T10:53:02.171Z,100070.34
2023-01-30T10:55:38.421Z,100068.75
2023-01-30T10:58:16.314Z,100061.75
2023-01-30T11:00:48.866Z,100051.25
2023-01-30T11:03:22.959Z,100069.72
2023-01-30T11:05:53.412Z,100066.19
2023-01-30T11:08:24.376Z,100081.13
2023-01-30T11:10:53.061Z,100064.38
2023-01-30T11:13:21.958Z,100058.19
2023-01-30T11:15:52.158Z,100066.09
2023-01-30T11:19:14.097Z,100081.91
2023-01-30T11:21:18.964Z,100040.63
2023-01-30T11:23:46.498Z,100041.53
2023-01-30T11:26:22.271Z,100041.59
2023-01-30T11:28:49.909Z,100029.34
2023-01-30T11:31:31.623Z,100022.31
2023-01-30T11:34:13.326Z,100006.50
2023-01-30T11:36:42.916Z,100023.22
2023-01-30T11:39:23.199Z,99999.47
2023-01-30T11:42:11.963Z,99990.66
2023-01-30T11:44:42.928Z,100007.41
2023-01-30T11:47:19.801Z,100004.75
2023-01-30T11:50:01.152Z,100000.38
2023-01-30T11:52:37.785Z,100003.00
2023-01-30T11:55:12.093Z,99988.91
2023-01-30T11:57:42.681Z,99993.31
2023-01-30T12:00:20.065Z,99986.28
2023-01-30T12:02:49.425Z,99982.75
2023-01-30T12:05:26.552Z,99987.16
2023-01-30T12:08:13.834Z,99981.00
2023-01-30T12:10:43.016Z,99986.28
2023-01-30T12:13:19.625Z,99980.13
2023-01-30T12:15:52.756Z,99985.38
2023-01-30T12:18:26.359Z,100000.38
2023-01-30T12:20:59.527Z,99997.69
2023-01-30T12:23:37.914Z,100009.97
2023-01-30T12:26:13.353Z,99995.84
2023-01-30T12:28:48.461Z,99990.47
2023-01-30T12:31:21.702Z,100000.88
2023-01-30T12:33:50.133Z,99991.16
2023-01-30T12:36:28.188Z,99975.31
2023-01-30T12:39:14.235Z,99971.75
2023-01-30T12:42:11.430Z,99955.91
2023-01-30T12:45:01.295Z,99952.38
2023-01-30T12:47:43.116Z,99952.41
2023-01-30T12:50:25.055Z,99939.28
2023-01-30T12:53:05.620Z,99941.91
2023-01-30T12:55:43.167Z,99931.44
2023-01-30T12:58:20.325Z,99932.34
2023-01-30T13:01:01.904Z,99942.97
2023-01-30T13:03:37.834Z,99932.50
2023-01-30T13:06:20.042Z,99961.53
2023-01-30T13:09:00.496Z,99984.41
2023-01-30T13:11:42.790Z,99976.47
2023-01-30T13:14:19.738Z,99976.44
2023-01-30T13:17:00.765Z,99990.44
2023-01-30T13:19:41.142Z,99975.38
2023-01-30T13:22:17.574Z,99989.34
2023-01-30T13:24:57.892Z,99995.44
2023-01-30T13:27:28.432Z,100000.63
2023-01-30T13:29:57.298Z,100003.16
2023-01-30T13:32:36.605Z,100018.00
2023-01-30T13:35:06.795Z,100027.56
2023-01-30T13:37:35.219Z,100031.00
2023-01-30T13:40:05.944Z,100021.28
2023-01-30T13:42:42.716Z,100027.41
2023-01-30T13:45:17.003Z,100025.72
2023-01-30T13:47:53.470Z,100028.47
2023-01-30T13:50:35.148Z,100026.84
2023-01-30T13:53:09.418Z,100031.31
2023-01-30T13:55:43.920Z,100037.59
2023-01-30T13:58:30.333Z,100020.09
2023-01-30T14:00:58.499Z,100027.16
2023-01-30T14:03:30.529Z,100031.47
2023-01-30T14:06:15.564Z,100041.03
2023-01-30T14:08:52.392Z,100047.13
2023-01-30T14:11:38.806Z,100028.66
2023-01-30T14:14:25.457Z,100046.19
2023-01-30T14:16:55.408Z,100045.25
2023-01-30T14:19:36.000Z,100054.06
2023-01-30T14:22:06.789Z,100062.03
2023-01-30T14:24:34.378Z,100048.91
2023-01-30T14:27:04.469Z,100062.03
2023-01-30T14:29:58.440Z,100086.56
2023-01-30T14:32:51.489Z,100089.97
2023-01-30T14:35:26.072Z,100072.31
2023-01-30T14:38:11.972Z,100071.31
2023-01-30T14:40:41.851Z,100067.72
2023-01-30T14:43:35.690Z,100067.66
2023-01-30T14:46:08.626Z,100069.41
2023-01-30T14:48:41.838Z,100071.13
2023-01-30T14:51:18.689Z,100096.53
2023-01-30T14:53:53.164Z,100106.97
2023-01-30T14:56:38.186Z,100094.63
2023-01-30T14:59:09.749Z,100097.16
2023-01-30T15:02:06.848Z,100115.50
2023-01-30T15:04:41.921Z,100111.91
2023-01-30T15:07:13.786Z,100132.94
2023-01-30T15:09:44.949Z,100134.66
2023-01-30T15:12:31.792Z,100112.75
2023-01-30T15:15:10.117Z,100129.38
2023-01-30T15:18:07.221Z,100131.03
2023-01-30T15:20:46.430Z,100149.44
2023-01-30T15:23:40.569Z,100143.22
2023-01-30T15:26:18.554Z,100140.59
2023-01-30T15:28:59.992Z,100145.03
2023-01-30T15:31:27.559Z,100157.31
2023-01-30T15:33:57.730Z,100172.25
2023-01-30T15:36:28.716Z,100178.34
2023-01-30T15:39:01.371Z,100177.38
2023-01-30T15:41:31.677Z,100165.88
2023-01-30T15:44:13.387Z,100178.03
2023-01-30T15:46:49.754Z,100187.59
2023-01-30T15:49:34.879Z,100178.75
2023-01-30T15:52:04.251Z,100176.00
2023-01-30T15:54:32.256Z,100191.72
2023-01-30T15:57:01.762Z,100187.25
2023-01-30T15:59:34.778Z,100193.38
2023-01-30T16:02:05.093Z,100187.22
2023-01-30T16:04:33.912Z,100202.03
2023-01-30T16:07:15.325Z,100206.38
2023-01-30T16:09:52.226Z,100219.53
2023-01-30T16:12:27.460Z,100214.22
2023-01-30T16:15:03.164Z,100210.66
2023-01-30T16:17:40.388Z,100233.47
2023-01-30T16:20:15.275Z,100232.63
2023-01-30T16:22:46.100Z,100249.25
2023-01-30T16:25:21.161Z,100251.03
2023-01-30T16:27:51.637Z,100267.72
2023-01-30T16:30:25.476Z,100290.53
2023-01-30T16:32:54.811Z,100296.75
2023-01-30T16:35:34.185Z,100288.91
2023-01-30T16:38:04.028Z,100309.03
2023-01-30T16:40:43.589Z,100312.59
2023-01-30T16:43:21.631Z,100322.16
2023-01-30T16:46:33.977Z,100325.59
2023-01-30T16:49:05.752Z,100338.72
2023-01-30T16:51:34.887Z,100349.19
2023-01-30T16:54:04.770Z,100355.25
2023-01-30T16:56:34.814Z,100360.41
2023-01-30T16:59:03.639Z,100378.72
2023-01-30T17:01:41.069Z,100390.06
2023-01-30T17:04:20.579Z,100383.00
2023-01-30T17:06:57.682Z,100385.56
2023-01-30T17:09:41.674Z,100391.63
2023-01-30T17:12:49.363Z,100391.53
2023-01-30T17:15:28.380Z,100407.25
2023-01-30T17:17:55.945Z,100402.88
2023-01-30T17:20:23.940Z,100416.88
2023-01-30T17:22:53.867Z,100413.44
2023-01-30T17:25:30.058Z,100416.91
2023-01-30T17:27:58.216Z,100412.53
2023-01-30T17:30:25.874Z,100417.78
2023-01-30T17:32:53.397Z,100413.41
2023-01-30T17:35:21.287Z,100420.38
2023-01-30T17:37:59.875Z,100426.50
2023-01-30T17:40:36.654Z,100423.84
2023-01-30T17:43:04.245Z,100431.69
2023-01-30T17:45:31.899Z,100441.31
2023-01-30T17:47:59.440Z,100446.56
2023-01-30T17:50:28.489Z,100466.66
2023-01-30T17:52:56.039Z,100461.44
2023-01-30T17:55:23.720Z,100483.31
2023-01-30T17:57:53.047Z,100479.78
2023-01-30T18:00:22.922Z,100501.63
2023-01-30T18:02:50.837Z,100492.91
2023-01-30T18:05:18.359Z,100504.28
2023-01-30T18:07:46.010Z,100508.66
2023-01-30T18:10:16.869Z,100510.47
2023-01-30T18:12:45.499Z,100516.63
2023-01-30T18:15:16.291Z,100521.88
2023-01-30T18:17:47.713Z,100520.16
2023-01-30T18:20:17.502Z,100508.75
2023-01-30T18:22:45.298Z,100526.28
2023-01-30T18:25:13.834Z,100528.88
2023-01-30T18:27:43.774Z,100528.09
2023-01-30T18:30:14.129Z,100531.63
2023-01-30T18:32:52.437Z,100534.28
2023-01-30T18:35:21.569Z,100535.97
2023-01-30T18:37:49.812Z,100548.22
2023-01-30T18:40:18.224Z,100551.75
2023-01-30T18:42:46.262Z,100562.34
2023-01-30T18:45:13.892Z,100585.09
2023-01-30T18:47:42.125Z,100589.53
2023-01-30T18:50:12.246Z,100579.94
2023-01-30T18:52:39.824Z,100586.94
2023-01-30T18:55:07.913Z,100586.09
2023-01-30T18:57:35.543Z,100607.19
2023-01-30T19:00:03.564Z,100595.84
2023-01-30T19:02:31.096Z,100596.69
2023-01-30T19:04:58.619Z,100614.16
2023-01-30T19:07:27.557Z,100617.69
2023-01-30T19:09:56.325Z,100611.53
2023-01-30T19:12:42.362Z,100617.66
2023-01-30T19:15:10.704Z,100622.88
2023-01-30T19:17:38.213Z,100633.38
2023-01-30T19:20:10.786Z,100622.00
2023-01-30T19:22:40.051Z,100626.38
2023-01-30T19:25:08.800Z,100634.31
2023-01-30T19:27:37.508Z,100634.34
2023-01-30T19:30:05.998Z,100638.72
2023-01-30T19:32:33.732Z,100658.94
2023-01-30T19:35:01.216Z,100649.34
2023-01-30T19:37:28.733Z,100664.25
2023-01-30T19:39:58.394Z,100660.78
2023-01-30T19:42:26.072Z,100660.72
2023-01-30T19:44:53.971Z,100650.22
2023-01-30T19:47:22.017Z,100667.66
2023-01-30T19:49:49.961Z,100662.38
2023-01-30T19:52:17.825Z,100680.75
2023-01-30T19:54:46.953Z,100692.00
2023-01-30T19:57:15.859Z,100691.97
2023-01-30T19:59:44.831Z,100682.25
2023-01-30T20:02:13.588Z,100689.13
2023-01-30T20:04:41.222Z,100695.97
2023-01-30T20:07:08.754Z,100702.84
2023-01-30T20:09:36.249Z,100704.47
2023-01-30T20:12:03.965Z,100713.03
2023-01-30T20:14:33.356Z,100714.66
2023-01-30T20:17:00.924Z,100718.88
2023-01-30T20:19:28.518Z,100737.16
2023-01-30T20:21:56.436Z,100755.44
2023-01-30T20:24:24.157Z,100756.22
2023-01-30T20:26:51.689Z,100758.78
2023-01-30T20:29:19.226Z,100749.94
2023-01-30T20:31:48.112Z,100756.81
2023-01-30T20:34:16.210Z,100754.13
2023-01-30T20:36:43.824Z,100769.81
2023-01-30T20:39:11.780Z,100773.28
2023-01-30T20:41:39.797Z,100772.41
2023-01-30T20:44:09.196Z,100777.69
2023-01-30T20:46:41.327Z,100783.88
2023-01-30T20:49:13.424Z,100788.28
2023-01-30T20:51:41.435Z,100776.97
2023-01-30T20:54:10.865Z,100791.94
2023-01-30T20:56:40.455Z,100784.13
2023-01-30T20:59:09.124Z,100797.28
2023-01-30T21:01:37.466Z,100805.16
2023-01-30T21:04:07.165Z,100796.50
2023-01-30T21:06:42.461Z,100791.31
2023-01-30T21:09:15.005Z,100804.50
2023-01-30T21:11:42.557Z,100805.44
2023-01-30T21:14:10.238Z,100814.34
2023-01-30T21:16:38.670Z,100814.41
2023-01-30T21:19:09.113Z,100817.94
2023-01-30T21:21:40.149Z,100813.63
2023-01-30T21:24:10.574Z,100809.31
2023-01-30T21:26:40.388Z,100816.44
2023-01-30T21:29:08.550Z,100820.00
2023-01-30T21:31:37.865Z,100828.78
2023-01-30T21:34:05.768Z,100842.84
2023-01-30T21:36:33.476Z,100853.44
2023-01-30T21:39:20.001Z,100845.66
2023-01-30T21:42:05.451Z,100840.41
2023-01-30T21:44:37.111Z,100844.78
2023-01-30T21:47:05.953Z,100845.66
2023-01-30T21:49:34.020Z,100846.53
2023-01-30T21:52:01.600Z,100856.22
2023-01-30T21:54:30.652Z,100855.34
2023-01-30T21:56:58.216Z,100859.72
2023-01-30T21:59:25.775Z,100860.56
2023-01-30T22:01:53.359Z,100858.78
2023-01-30T22:04:20.933Z,100876.34
2023-01-30T22:06:48.581Z,100866.78
2023-01-30T22:09:16.897Z,100866.78
2023-01-30T22:11:46.203Z,100887.78
2023-01-30T22:14:14.709Z,100885.97
2023-01-30T22:16:42.797Z,100905.25
2023-01-30T22:19:11.522Z,100898.28
2023-01-30T22:21:40.633Z,100898.19
2023-01-30T22:24:11.672Z,100917.28
2023-01-30T22:26:39.773Z,100904.78
2023-01-30T22:29:08.709Z,100925.69
2023-01-30T22:31:40.391Z,100921.81
2023-01-30T22:34:08.917Z,100926.81
2023-01-30T22:36:37.165Z,100933.31
2023-01-30T22:39:05.947Z,100940.06
2023-01-30T22:41:36.229Z,100923.22
2023-01-30T22:44:06.447Z,100932.69
2023-01-30T22:46:37.392Z,100925.56
2023-01-30T22:49:06.825Z,100940.38
2023-01-30T22:51:36.237Z,100935.84
2023-01-30T22:54:05.924Z,100934.84
2023-01-30T22:56:37.074Z,100929.41
2023-01-30T22:59:04.902Z,100923.19
2023-01-30T23:01:35.946Z,100924.13
2023-01-30T23:04:05.336Z,100933.75
2023-01-30T23:06:33.667Z,100939.00
2023-01-30T23:09:02.267Z,100936.47
2023-01-30T23:11:31.479Z,100932.97
2023-01-30T23:14:05.277Z,100939.97
2023-01-30T23:16:36.022Z,100943.53
2023-01-30T23:19:04.648Z,100947.97
2023-01-30T23:21:35.981Z,100952.38
2023-01-30T23:24:06.189Z,100954.13
2023-01-30T23:26:36.262Z,100959.44
2023-01-30T23:29:07.598Z,100964.69
2023-01-30T23:31:37.904Z,100971.66
2023-01-30T23:34:07.944Z,100966.47
2023-01-30T23:36:36.391Z,100973.47
2023-01-30T23:39:05.437Z,100968.28
2023-01-30T23:41:35.253Z,100967.34
2023-01-30T23:44:03.678Z,100973.47
2023-01-30T23:46:33.630Z,100975.22
2023-01-30T23:49:04.642Z,100966.53
2023-01-30T23:51:34.022Z,100984.00
2023-01-30T23:54:02.079Z,100973.53
2023-01-30T23:56:32.013Z,100973.53
2023-01-30T23:58:59.731Z,100973.56
